Flight Track Log - Related Links

Times and Time Zones

All times are in EDT time to prevent confusion due to time zone crossing. See the UAL395 flight status page for this flight to view local times or setup timezone preferences in your user account.

Time Position Orientation Groundspeed Altitude Reporting Facility
EDT Latitude Longitude Course Direction KTS MPH feet Rate Location/Type
Wed 06:21:39 PM 41.9640 -87.8870 222° Southwest 115 132  Level FlightAware ADS-B
Wed 06:22:04 PM 41.9500 -87.9020 219° Southwest 159 183 1,300 3,081 Climbing FlightAware ADS-B
Wed 06:22:16 PM 41.9420 -87.9060 200° South 163 188 1,900 3,188 Climbing FlightAware ADS-B
Wed 06:22:36 PM 41.9270 -87.9120 197° South 163 188 3,000 3,000 Climbing FlightAware ADS-B
Wed 06:22:48 PM 41.9180 -87.9150 194° South 170 196 3,500 1,941 Climbing FlightAware ADS-B
Wed 06:23:10 PM 41.8990 -87.9210 193° South 210 242 4,100 1,814 Climbing FlightAware ADS-B
Wed 06:23:31 PM 41.8790 -87.9290 197° South 238 274 4,800 2,857 Climbing FlightAware ADS-B
Wed 06:23:52 PM 41.8550 -87.9390 197° South 254 292 6,100 3,150 Climbing FlightAware ADS-B
Wed 06:24:11 PM 41.8320 -87.9430 187° South 275 316 6,900 2,824 Climbing FlightAware ADS-B
Wed 06:24:26 PM 41.8110 -87.9470 188° South 286 329 7,700 3,000 Climbing FlightAware ADS-B
Wed 06:24:49 PM 41.7830 -87.9530 189° South 299 344 8,800 3,500 Climbing FlightAware ADS-B
Wed 06:25:02 PM 41.7630 -87.9570 188° South 301 346 9,800 3,551 Climbing FlightAware ADS-B
Wed 06:25:38 PM 41.7130 -87.9680 189° South 317 365 11,700 3,429 Climbing FlightAware ADS-B
Wed 06:26:12 PM 41.6630 -87.9780 188° South 320 368 13,800 2,696 Climbing FlightAware ADS-B
Wed 06:26:47 PM 41.6090 -87.9880 188° South 359 413 14,800 2,057 Climbing FlightAware ADS-B
Wed 06:27:22 PM 41.5500 -88.0010 189° South 383 441 16,200 2,417 Climbing FlightAware ADS-B
Wed 06:27:59 PM 41.4820 -88.0150 189° South 407 468 17,700 2,877 Climbing FlightAware ADS-B
Wed 06:28:35 PM 41.4130 -88.0290 189° South 409 471 19,700 2,118 Climbing FlightAware ADS-B
Wed 06:29:07 PM 41.3510 -88.0450 191° South 446 513 20,100 1,765 Climbing FlightAware ADS-B
Wed 06:29:43 PM 41.2790 -88.0710 195° South 451 519 21,700 2,333 Climbing FlightAware ADS-B
Wed 06:30:19 PM 41.2050 -88.0980 195° South 468 539 22,900 2,143 Climbing FlightAware ADS-B
Wed 06:30:53 PM 41.1310 -88.1190 192° South 475 547 24,200 2,143 Climbing FlightAware ADS-B
Wed 06:31:29 PM 41.0530 -88.1460 195° South 485 558 25,400 1,775 Climbing FlightAware ADS-B
Wed 06:32:04 PM 40.9810 -88.1860 203° Southwest 494 568 26,300 1,612 Climbing FlightAware ADS-B
Wed 06:32:36 PM 40.9160 -88.2310 208° Southwest 503 579 27,200 1,739 Climbing FlightAware ADS-B
Wed 06:33:13 PM 40.8400 -88.2850 208° Southwest 510 587 28,300 2,113 Climbing FlightAware ADS-B
Wed 06:33:47 PM 40.7680 -88.3360 208° Southwest 506 582 29,700 2,417 Climbing FlightAware ADS-B
Wed 06:34:25 PM 40.6900 -88.3900 208° Southwest 502 578 31,200 1,971 Climbing FlightAware ADS-B
Wed 06:34:57 PM 40.6270 -88.4340 208° Southwest 505 581 32,000 727 Climbing FlightAware ADS-B
Wed 06:35:31 PM 40.5560 -88.4830 208° Southwest 517 595 32,000  Level FlightAware ADS-B
Wed 06:36:09 PM 40.4750 -88.5390 208° Southwest 511 588 32,000  Level FlightAware ADS-B
Wed 06:36:41 PM 40.4080 -88.5860 208° Southwest 508 585 32,000  Level FlightAware ADS-B
Wed 06:37:27 PM 40.3130 -88.6500 207° Southwest 505 581 32,000 759 Level FlightAware ADS-B
Wed 06:38:00 PM 40.2440 -88.6980 208° Southwest 500 575 33,000 1,727 Climbing FlightAware ADS-B
Wed 06:38:33 PM 40.1780 -88.7430 208° Southwest 498 573 33,900 833 Climbing FlightAware ADS-B
Wed 06:39:12 PM 40.0970 -88.7970 207° Southwest 506 582 34,000 85 Climbing FlightAware ADS-B
Wed 06:39:44 PM 40.0300 -88.8430 208° Southwest 505 581 34,000  Level FlightAware ADS-B
Wed 06:40:23 PM 39.9510 -88.8960 207° Southwest 501 577 34,000 771 Level FlightAware ADS-B
Wed 06:40:54 PM 39.8850 -88.9410 208° Southwest 496 571 34,900 870 Climbing FlightAware ADS-B
Wed 06:41:32 PM 39.8100 -88.9910 207° Southwest 495 570 35,000 83 Climbing FlightAware ADS-B
Wed 06:42:06 PM 39.7430 -89.0360 207° Southwest 491 565 35,000  Level FlightAware ADS-B
Wed 06:42:44 PM 39.6650 -89.0880 207° Southwest 487 560 35,000  Level FlightAware ADS-B
Wed 06:43:15 PM 39.6010 -89.1310 207° Southwest 483 556 35,000  Level FlightAware ADS-B
Wed 06:43:54 PM 39.5260 -89.1810 207° Southwest 482 555 35,000  Level FlightAware ADS-B
Wed 06:44:27 PM 39.4600 -89.2250 207° Southwest 480 552 35,000  Level FlightAware ADS-B
Wed 06:45:00 PM 39.3940 -89.2690 207° Southwest 481 554 35,000  Level FlightAware ADS-B
Wed 06:45:38 PM 39.3180 -89.3190 207° Southwest 482 555 35,000  Level FlightAware ADS-B
Wed 06:46:13 PM 39.2480 -89.3660 207° Southwest 482 555 35,000  Level FlightAware ADS-B
Wed 06:46:45 PM 39.1840 -89.4080 207° Southwest 482 555 35,000  Level FlightAware ADS-B
Wed 06:47:21 PM 39.1120 -89.4550 207° Southwest 483 556 35,000  Level FlightAware ADS-B
Wed 06:47:56 PM 39.0430 -89.5000 207° Southwest 483 556 35,000  Level FlightAware ADS-B
Wed 06:48:32 PM 38.9720 -89.5470 207° Southwest 482 555 35,000  Level FlightAware ADS-B
Wed 06:49:09 PM 38.8970 -89.5960 207° Southwest 482 555 35,000  Level FlightAware ADS-B
Wed 06:49:41 PM 38.8380 -89.6340 207° Southwest 482 555 35,000  Level FlightAware ADS-B
Wed 06:50:16 PM 38.7650 -89.6810 207° Southwest 482 555 35,000  Level FlightAware ADS-B
Wed 06:50:48 PM 38.7010 -89.7230 207° Southwest 483 556 35,000  Level FlightAware ADS-B
Wed 06:51:29 PM 38.6200 -89.7760 207° Southwest 483 556 35,000  Level FlightAware ADS-B
Wed 06:52:01 PM 38.5540 -89.8180 206° Southwest 482 555 35,000  Level FlightAware ADS-B
Wed 06:52:38 PM 38.4830 -89.8640 207° Southwest 483 556 35,000  Level FlightAware ADS-B
Wed 06:53:10 PM 38.4200 -89.9050 207° Southwest 482 555 35,000  Level FlightAware ADS-B
Wed 06:53:52 PM 38.3340 -89.9600 207° Southwest 482 555 35,000  Level FlightAware ADS-B
Wed 06:54:30 PM 38.2610 -90.0070 207° Southwest 481 554 35,000  Level FlightAware ADS-B
Wed 06:55:02 PM 38.1940 -90.0490 206° Southwest 480 552 35,000  Level FlightAware ADS-B
Wed 06:55:39 PM 38.1230 -90.0950 207° Southwest 479 551 35,000  Level FlightAware ADS-B
Wed 06:56:15 PM 38.0510 -90.1400 206° Southwest 478 550 35,000  Level FlightAware ADS-B
Wed 06:56:50 PM 37.9810 -90.1850 207° Southwest 478 550 35,000  Level FlightAware ADS-B
Wed 06:57:36 PM 37.8970 -90.2370 206° Southwest 477 549 35,000  Level FlightAware ADS-B
Wed 06:58:13 PM 37.8350 -90.2760 206° Southwest 477 549 35,000  Level FlightAware ADS-B
Wed 06:58:49 PM 37.7740 -90.3130 206° Southwest 477 549 35,000  Level FlightAware ADS-B
Wed 06:59:29 PM 37.6790 -90.3750 207° Southwest 474 545 35,000  Level FlightAware ADS-B
Wed 07:00:05 PM 37.6190 -90.4120 206° Southwest 474 545 35,000  Level FlightAware ADS-B
Wed 07:00:41 PM 37.5580 -90.4490 206° Southwest 474 545 35,000  Level FlightAware ADS-B
Wed 07:01:18 PM 37.4960 -90.4870 206° Southwest 474 545 35,000  Level FlightAware ADS-B
Wed 07:01:54 PM 37.4360 -90.5240 206° Southwest 474 545 35,000 952 Level FlightAware ADS-B
Wed 07:02:21 PM 37.3350 -90.5900 207° Southwest 467 537 36,000 896 Climbing FlightAware ADS-B
Wed 07:03:01 PM 37.2600 -90.6370 207° Southwest 468 539 36,000  Level FlightAware ADS-B
Wed 07:03:33 PM 37.1960 -90.6770 206° Southwest 470 541 36,000  Level FlightAware ADS-B
Wed 07:04:09 PM 37.1270 -90.7190 206° Southwest 470 541 36,000  Level FlightAware ADS-B
Wed 07:04:45 PM 37.0540 -90.7640 206° Southwest 470 541 36,000  Level FlightAware ADS-B
Wed 07:05:21 PM 36.9870 -90.8050 206° Southwest 469 540 36,000  Level FlightAware ADS-B
Wed 07:05:53 PM 36.9230 -90.8450 207° Southwest 468 539 36,000  Level FlightAware ADS-B
Wed 07:06:32 PM 36.8480 -90.8910 206° Southwest 466 536 36,000  Level FlightAware ADS-B
Wed 07:07:07 PM 36.7780 -90.9330 206° Southwest 466 536 36,000  Level FlightAware ADS-B
Wed 07:07:43 PM 36.7110 -90.9740 206° Southwest 465 535 36,000  Level FlightAware ADS-B
Wed 07:08:15 PM 36.6470 -91.0140 207° Southwest 466 536 36,000  Level FlightAware ADS-B
Wed 07:08:51 PM 36.5780 -91.0560 206° Southwest 465 535 36,000  Level FlightAware ADS-B
Wed 07:09:27 PM 36.5090 -91.0980 206° Southwest 466 536 36,000  Level FlightAware ADS-B
Wed 07:10:03 PM 36.4410 -91.1390 206° Southwest 464 534 36,000  Level FlightAware ADS-B
Wed 07:10:34 PM 36.3790 -91.1760 206° Southwest 465 535 36,000  Level FlightAware ADS-B
Wed 07:11:12 PM 36.3050 -91.2210 206° Southwest 465 535 36,000  Level FlightAware ADS-B
Wed 07:11:48 PM 36.2360 -91.2630 206° Southwest 466 536 36,000  Level FlightAware ADS-B
Wed 07:12:33 PM 36.1490 -91.3150 206° Southwest 465 535 36,000  Level FlightAware ADS-B
Wed 07:13:12 PM 36.0730 -91.3610 206° Southwest 464 534 36,000  Level FlightAware ADS-B
Wed 07:13:44 PM 36.0100 -91.3980 205° Southwest 464 534 36,000  Level FlightAware ADS-B
Wed 07:14:20 PM 35.9400 -91.4400 206° Southwest 465 535 36,000  Level FlightAware ADS-B
Wed 07:14:56 PM 35.8710 -91.4810 206° Southwest 464 534 36,000  Level FlightAware ADS-B
Wed 07:15:26 PM 35.8130 -91.5160 206° Southwest 465 535 36,000  Level FlightAware ADS-B
Wed 07:16:02 PM 35.7440 -91.5570 206° Southwest 465 535 36,000  Level FlightAware ADS-B
Wed 07:16:36 PM 35.6780 -91.5960 206° Southwest 465 535 36,000  Level FlightAware ADS-B
Wed 07:17:13 PM 35.6130 -91.6330 205° Southwest 465 535 36,000  Level FlightAware ADS-B
Wed 07:17:46 PM 35.5430 -91.6760 207° Southwest 465 535 36,000  Level FlightAware ADS-B
Wed 07:18:26 PM 35.4760 -91.7140 205° Southwest 465 535 36,000  Level FlightAware ADS-B
Wed 07:19:00 PM 35.4200 -91.7460 205° Southwest 465 535 36,000  Level FlightAware ADS-B
Wed 07:19:36 PM 35.3600 -91.7800 205° Southwest 465 535 36,000  Level FlightAware ADS-B
Wed 07:20:20 PM 35.2600 -91.8410 206° Southwest 449 517 36,000  Level FlightAware ADS-B
Wed 07:20:54 PM 35.1860 -91.8850 206° Southwest 445 512 36,000  Level FlightAware ADS-B
Wed 07:21:32 PM 35.1260 -91.9200 206° Southwest 445 512 36,000  Level FlightAware ADS-B
Wed 07:22:08 PM 35.0680 -91.9520 204° Southwest 445 512 36,000  Level FlightAware ADS-B
Wed 07:22:44 PM 35.0110 -91.9850 205° Southwest 445 512 36,000  Level FlightAware ADS-B
Wed 07:23:20 PM 34.9540 -92.0170 205° Southwest 445 512 36,000  Level FlightAware ADS-B
Wed 07:23:56 PM 34.8970 -92.0500 205° Southwest 445 512 36,000  Level FlightAware ADS-B
Wed 07:24:35 PM 34.8350 -92.0850 205° Southwest 445 512 36,000  Level FlightAware ADS-B
Wed 07:25:11 PM 34.7780 -92.1170 205° Southwest 445 512 36,000  Level FlightAware ADS-B
Wed 07:25:48 PM 34.7200 -92.1510 206° Southwest 445 512 36,000  Level FlightAware ADS-B
Wed 07:26:24 PM 34.6620 -92.1830 204° Southwest 445 512 36,000  Level FlightAware ADS-B
Wed 07:27:00 PM 34.6050 -92.2150 205° Southwest 445 512 36,000  Level FlightAware ADS-B
Wed 07:27:36 PM 34.5480 -92.2480 205° Southwest 445 512 36,000  Level FlightAware ADS-B
Wed 07:28:14 PM 34.4880 -92.2820 205° Southwest 445 512 36,000  Level FlightAware ADS-B
Wed 07:28:50 PM 34.4310 -92.3140 205° Southwest 445 512 36,000  Level FlightAware ADS-B
Wed 07:29:26 PM 34.3740 -92.3460 205° Southwest 445 512 36,000  Level FlightAware ADS-B
Wed 07:30:02 PM 34.3170 -92.3790 206° Southwest 445 512 36,000  Level FlightAware ADS-B
Wed 07:30:39 PM 34.2580 -92.4120 205° Southwest 445 512 36,000  Level FlightAware ADS-B
Wed 07:32:06 PM 33.9186 -92.0900 205° Southwest 397 457 36,000  Level Fort Worth Center
Wed 07:37:19 PM 33.3670 -92.4250 205° Southwest 425 489 36,000  Level FlightAware ADS-B
Wed 07:37:56 PM 33.2890 -92.4400 189° South 429 494 36,000  Level FlightAware ADS-B
Wed 07:38:25 PM 33.2320 -92.4500 188° South 431 496 36,000  Level FlightAware ADS-B
Wed 07:39:15 PM 33.1490 -92.4650 189° South 436 502 36,000  Level FlightAware ADS-B
Wed 07:39:53 PM 33.1910 -92.4570 North 447 514 36,000  Level FlightAware ADS-B
Wed 07:40:31 PM 33.1250 -92.4700 189° South 447 514 36,000  Level FlightAware ADS-B
Wed 07:41:07 PM 33.0630 -92.4820 189° South 447 514 36,000  Level FlightAware ADS-B
Wed 07:41:45 PM 32.9970 -92.4940 189° South 447 514 36,000  Level FlightAware ADS-B
Wed 07:42:21 PM 32.9340 -92.5060 189° South 447 514 36,000  Level FlightAware ADS-B
Wed 07:42:50 PM 33.1910 -92.4570 North 450 518 36,000  Level FlightAware ADS-B
Wed 07:43:35 PM 32.6350 -92.7070 201° Southwest 450 518 36,000  Level FlightAware ADS-B
Wed 07:44:10 PM 32.5690 -92.7460 206° Southwest 451 519 36,000  Level FlightAware ADS-B
Wed 07:44:50 PM 32.4940 -92.7910 207° Southwest 453 521 36,000  Level FlightAware ADS-B
Wed 07:45:25 PM 32.4300 -92.8280 206° Southwest 452 520 36,000  Level FlightAware ADS-B
Wed 07:46:06 PM 32.3510 -92.8750 207° Southwest 453 521 36,000  Level FlightAware ADS-B
Wed 07:46:36 PM 32.2940 -92.9080 206° Southwest 452 520 36,000  Level FlightAware ADS-B
Wed 07:47:12 PM 32.2330 -92.9440 207° Southwest 452 520 36,000  Level FlightAware ADS-B
Wed 07:47:48 PM 32.1660 -92.9830 206° Southwest 450 518 36,000  Level FlightAware ADS-B
Wed 07:48:25 PM 32.0890 -93.0280 206° Southwest 449 517 36,000  Level FlightAware ADS-B
Wed 07:48:56 PM 32.0360 -93.0590 206° Southwest 448 516 36,000  Level FlightAware ADS-B
Wed 07:49:32 PM 31.9690 -93.0990 207° Southwest 448 516 36,000  Level FlightAware ADS-B
Wed 07:50:16 PM 31.8818 -93.1495 206° Southwest 448 516 36,000  Level FlightAware ADS-B
Wed 07:51:03 PM 31.8240 -93.1830 206° Southwest 447 514 36,000  Level FlightAware ADS-B
Wed 07:51:33 PM 31.7390 -93.2325 206° Southwest 449 517 36,000  Level FlightAware ADS-B
Wed 07:52:03 PM 31.6824 -93.2653 206° Southwest 448 516 36,000  Level FlightAware ADS-B
Wed 07:52:53 PM 31.5925 -93.3199 207° Southwest 444 511 36,000  Level FlightAware ADS-B
Wed 07:53:25 PM 31.5450 -93.3716 223° Southwest 431 496 36,000  Level FlightAware ADS-B
Wed 07:54:02 PM 31.4928 -93.4319 225° Southwest 425 489 36,000  Level FlightAware ADS-B
Wed 07:54:33 PM 31.4500 -93.4812 225° Southwest 418 481 36,000 -95 Level FlightAware ADS-B
Wed 07:55:05 PM 31.4144 -93.5382 234° Southwest 417 480 35,900 -511 Descending FlightAware ADS-B
Wed 07:55:20 PM 31.4049 -93.5697 251° West 414 476 35,600 -1,154 Descending FlightAware ADS-B
Wed 07:55:31 PM 31.4010 -93.5943 259° West 417 480 35,400 -1,371 Descending FlightAware ADS-B
Wed 07:55:55 PM 31.4013 -93.6488 270° West 423 487 34,800 -1,395 Descending FlightAware ADS-B
Wed 07:56:14 PM 31.4031 -93.6926 273° West 425 489 34,400 -1,371 Descending FlightAware ADS-B
Wed 07:56:30 PM 31.4007 -93.7289 266° West 425 489 34,000 -1,840 Descending FlightAware ADS-B
Wed 07:57:29 PM 31.3723 -93.8640 250° West 444 511 32,100 -1,624 Descending FlightAware ADS-B
Wed 07:57:55 PM 31.3412 -93.9151 235° Southwest 442 509 31,700 -878 Descending FlightAware ADS-B
Wed 07:58:10 PM 31.3183 -93.9384 221° Southwest 441 507 31,500 -692 Descending FlightAware ADS-B
Wed 07:58:21 PM 31.2993 -93.9528 213° Southwest 441 507 31,400 -818 Descending FlightAware ADS-B
Wed 07:58:32 PM 31.2804 -93.9640 207° Southwest 441 507 31,200 -1,548 Descending FlightAware ADS-B
Wed 07:58:52 PM 31.2432 -93.9844 205° Southwest 447 514 30,600 -1,434 Descending FlightAware ADS-B
Wed 08:00:25 PM 31.0549 -94.0544 197° South 459 528 28,500 -1,155 Descending FlightAware ADS-B
Wed 08:01:59 PM 30.8660 -94.1221 197° South 449 517 27,000 -1,519 Descending FlightAware ADS-B
Wed 08:04:18 PM 30.5986 -94.2189 197° South 427 491 22,600 -2,339 Descending FlightAware ADS-B
Wed 08:05:37 PM 30.4581 -94.2645 186° South 376 433 18,500 -2,975 Descending FlightAware ADS-B
Wed 08:06:19 PM 30.3857 -94.2554 172° South 366 421 16,600 -2,667 Descending FlightAware ADS-B
Wed 08:06:49 PM 30.3360 -94.2473 172° South 359 413 15,300 -2,571 Descending FlightAware ADS-B
Wed 08:07:01 PM 30.3165 -94.2466 182° South 358 412 14,800 -2,053 Descending FlightAware ADS-B
Wed 08:07:27 PM 30.2763 -94.2598 204° Southwest 348 400 14,000 -1,756 Descending FlightAware ADS-B
Wed 08:07:42 PM 30.2560 -94.2752 213° Southwest 344 396 13,600 -1,500 Descending FlightAware ADS-B
Wed 08:07:47 PM 30.2508 -94.2807 222° Southwest 343 395 13,500 -1,500 Descending FlightAware ADS-B
Wed 08:07:58 PM 30.2396 -94.2954 229° Southwest 340 391 13,200 -1,636 Descending FlightAware ADS-B
Wed 08:08:31 PM 30.2093 -94.3437 237° Southwest 334 384 12,300 -1,650 Descending FlightAware ADS-B
Wed 08:08:38 PM 30.2034 -94.3557 240° Southwest 332 382 12,100 -1,600 Descending FlightAware ADS-B
Wed 08:08:46 PM 30.1985 -94.3690 247° West 331 381 11,900 -1,286 Descending FlightAware ADS-B
Wed 08:08:52 PM 30.1959 -94.3780 252° West 330 380 11,800 -1,701 Descending FlightAware ADS-B
Wed 08:09:53 PM 30.1770 -94.4832 259° West 332 382 10,000 -1,000 Descending FlightAware ADS-B
Wed 08:10:46 PM 30.1612 -94.5761 258° West 329 379 9,900 -61 Descending FlightAware ADS-B
Wed 08:11:32 PM 30.1483 -94.6519 259° West 301 346 9,900 -197 Level FlightAware ADS-B
Wed 08:11:47 PM 30.1442 -94.6756 259° West 293 337 9,700 -1,200 Descending FlightAware ADS-B
Wed 08:12:02 PM 30.1403 -94.6986 259° West 292 336 9,300 -1,429 Descending FlightAware ADS-B
Wed 08:13:53 PM 30.1112 -94.8662 259° West 285 328 6,700 -1,388 Descending FlightAware ADS-B
Wed 08:14:03 PM 30.1086 -94.8816 259° West 283 326 6,500 -1,500 Descending FlightAware ADS-B
Wed 08:14:13 PM 30.1067 -94.8954 261° West 284 327 6,200 -1,364 Descending FlightAware ADS-B
Wed 08:14:25 PM 30.1055 -94.9133 268° West 282 325 6,000 -643 Descending FlightAware ADS-B
Wed 08:14:41 PM 30.1052 -94.9373 269° West 284 327 5,900 -194 Descending FlightAware ADS-B
Wed 08:14:56 PM 30.1052 -94.9607 270° West 284 327 5,900  Level FlightAware ADS-B
Wed 08:15:43 PM 30.1058 -95.0315 271° West 286 329 5,900  Level FlightAware ADS-B
Wed 08:15:58 PM 30.1059 -95.0553 270° West 286 329 5,900  Level FlightAware ADS-B
Wed 08:16:15 PM 30.1060 -95.0805 270° West 286 329 5,900  Level FlightAware ADS-B
Wed 08:17:11 PM 30.1063 -95.1668 270° West 285 328 5,900  Level FlightAware ADS-B
Wed 08:17:42 PM 30.1064 -95.2131 270° West 283 326 5,900  Level FlightAware ADS-B
Wed 08:17:58 PM 30.1065 -95.2368 270° West 283 326 5,900  Level FlightAware ADS-B
Wed 08:18:43 PM 30.1067 -95.3015 270° West 245 282 5,900  Level FlightAware ADS-B
Wed 08:18:58 PM 30.1067 -95.3207 270° West 239 275 5,900 -533 Level FlightAware ADS-B
Wed 08:20:13 PM 30.1069 -95.4155 270° West 235 270 5,100 -838 Descending FlightAware ADS-B
Wed 08:21:14 PM 30.1070 -95.4923 270° West 238 274 4,000 -1,161 Descending FlightAware ADS-B
Wed 08:21:46 PM 30.1070 -95.5324 270° West 239 275 3,300 -1,176 Descending FlightAware ADS-B
Wed 08:22:05 PM 30.1064 -95.5569 264° West 238 274 3,000 -1,091 Descending FlightAware ADS-B
Wed 08:22:08 PM 30.1055 -95.5612 256° West 238 274 2,900 -667 Descending FlightAware ADS-B
Wed 08:22:14 PM 30.1033 -95.5674 248° West 237 273 2,900  Level FlightAware ADS-B
Wed 08:22:17 PM 30.1013 -95.5712 239° Southwest 237 273 2,900  Level FlightAware ADS-B
Wed 08:22:20 PM 30.0991 -95.5743 231° Southwest 235 270 2,900  Level FlightAware ADS-B
Wed 08:22:26 PM 30.0949 -95.5786 222° Southwest 231 266 2,900  Level FlightAware ADS-B
Wed 08:22:29 PM 30.0918 -95.5808 212° Southwest 228 262 2,900  Level FlightAware ADS-B
Wed 08:22:33 PM 30.0882 -95.5827 205° Southwest 225 259 2,900  Level FlightAware ADS-B
Wed 08:22:36 PM 30.0850 -95.5837 195° South 221 254 2,900  Level FlightAware ADS-B
Wed 08:22:44 PM 30.0774 -95.5845 185° South 215 247 2,900  Level FlightAware ADS-B
Wed 08:22:50 PM 30.0711 -95.5836 173° South 215 247 2,900  Level FlightAware ADS-B
Wed 08:23:15 PM 30.0470 -95.5770 166° South 215 247 2,900  Level FlightAware ADS-B
Wed 08:23:28 PM 30.0349 -95.5704 155° Southeast 209 241 2,900  Level FlightAware ADS-B
Wed 08:23:33 PM 30.0307 -95.5672 147° Southeast 208 239 2,900  Level FlightAware ADS-B
Wed 08:23:37 PM 30.0278 -95.5647 143° Southeast 208 239 2,900 750 Level FlightAware ADS-B
Wed 08:23:41 PM 30.0250 -95.5618 138° Southeast 208 239 3,000 429 Climbing FlightAware ADS-B
Wed 08:23:51 PM 30.0176 -95.5539 135° Southeast 211 243 3,000 -375 Level FlightAware ADS-B
Wed 08:23:57 PM 30.0137 -95.5491 133° Southeast 209 241 2,900 -273 Descending FlightAware ADS-B
Wed 08:24:13 PM 30.0044 -95.5362 130° Southeast 196 226 2,900  Level FlightAware ADS-B
Wed 08:24:20 PM 30.0009 -95.5308 127° Southeast 184 212 2,900  Level FlightAware ADS-B
Wed 08:24:24 PM 29.9988 -95.5273 125° Southeast 179 206 2,900  Level FlightAware ADS-B
Wed 08:24:28 PM 29.9974 -95.5240 116° Southeast 176 203 2,900  Level FlightAware ADS-B
Wed 08:24:32 PM 29.9964 -95.5208 110° East 176 203 2,900 -857 Level FlightAware ADS-B
Wed 08:24:35 PM 29.9957 -95.5178 105° East 176 203 2,800 -857 Descending FlightAware ADS-B
Wed 08:24:39 PM 29.9949 -95.5137 103° East 175 201 2,800 -750 Level FlightAware ADS-B
Wed 08:24:43 PM 29.9944 -95.5101 99° East 175 201 2,700 -857 Descending FlightAware ADS-B
Wed 08:24:46 PM 29.9941 -95.5073 97° East 174 200 2,700 -750 Level FlightAware ADS-B
Wed 08:24:59 PM 29.9933 -95.4953 94° East 176 203 2,500 -1,059 Descending FlightAware ADS-B
Wed 08:25:03 PM 29.9932 -95.4918 92° East 176 203 2,400 -1,333 Descending FlightAware ADS-B
Wed 08:25:08 PM 29.9932 -95.4870 90° East 177 204 2,300 -857 Descending FlightAware ADS-B
Wed 08:25:24 PM 29.9938 -95.4721 87° East 177 204 2,100 -960 Descending FlightAware ADS-B
Wed 08:25:33 PM 29.9943 -95.4637 86° East 173 199 1,900 -1,000 Descending FlightAware ADS-B
Wed 08:25:42 PM 29.9944 -95.4550 89° East 166 191 1,800 -1,000 Descending FlightAware ADS-B
Wed 08:25:45 PM 29.9944 -95.4524 90° East 162 186 1,700 -783 Descending FlightAware ADS-B
Wed 08:26:05 PM 29.9938 -95.4369 93° East 141 162 1,500 -828 Descending FlightAware ADS-B
Wed 08:26:14 PM 29.9937 -95.4307 91° East 135 155 1,300 -1,286 Descending FlightAware ADS-B
Wed 08:26:19 PM 29.9936 -95.4268 92° East 133 153 1,200 -571 Descending FlightAware ADS-B
Wed 08:26:35 PM 29.9934 -95.4159 91° East 131 151 1,100 -545 Descending FlightAware ADS-B
Wed 08:26:41 PM 29.9933 -95.4113 91° East 133 153 1,000 -900 Descending FlightAware ADS-B
Wed 08:26:55 PM 29.9932 -95.4018 91° East 134 154 800 -600 Descending FlightAware ADS-B
Wed 08:27:11 PM 29.9935 -95.3897 88° East 137 158 700 -692 Descending FlightAware ADS-B
Wed 08:27:21 PM 29.9935 -95.3828 90° East 136 157 500 -783 Descending FlightAware ADS-B
Wed 08:27:34 PM 29.9934 -95.3735 91° East 135 155 400 -632 Descending FlightAware ADS-B
Wed 08:27:40 PM 29.9934 -95.3686 90° East 136 157 300 -706 Descending FlightAware ADS-B
Wed 08:27:51 PM 29.9935 -95.3611 89° East 137 158 200 -545 Descending FlightAware ADS-B

Login

Don't have an account? Register now (free) for customized features, flight alerts, and more!